Country
Station

 

Weather  for  Atlanta, Hartsfield Atlanta International Airport  -  United States    United States

  
19 °C (66 °F)
    
 
 

Current METAR for Atlanta, Hartsfield Atlanta International Airport is :

KATL 181452Z 09010KT 10SM SCT180 SCT250 19/07 A3036 RMK AO2 SLP279 T01890072 50013

 

This is a report for Atlanta, Hartsfield Atlanta International Airport - United States.
 
The report was made 5 minutes ago, at 14:52 UTC .
The wind was blowing at a speed of 5.1 meters per second (11.5 miles per hour) from east (090°).
 
The temperature was 19 °C (66 °F), with a dew-point at 7 °C (45 °F).
The atmospheric pressure was 1028 hPa (30.36 inHg).
The relative humidity was 45.6%.
 
There were scattered clouds at a height of 5486 meters (18000 feet) and scattered clouds at a height of 7620 meters (25000 feet).
 
The overall visibility was 16.1 kilometers (10.0 miles).
 

 
 
 
 

Country :   A   B   C   D   E   F   G   H   I   J   K   L   M   N   O   P   Q   R   S   T   U   V   W   Y   Z

 

Site Info  |  Disclaimer  |  Credits  |  Privacy
Contact us  |  Add to favorites
© 2013-2018 METARs - All rights reserved